sensor_id;sensor_type;location;lat;lon;timestamp;P1;durP1;ratioP1;P2;durP2;ratioP2
36629;SDS011;36256;42.154;23.002;2023-06-14T00:01:15;10.77;;;6.55;;
36629;SDS011;36256;42.154;23.002;2023-06-14T00:03:41;10.88;;;5.63;;
36629;SDS011;36256;42.154;23.002;2023-06-14T00:06:08;9.27;;;6.18;;
36629;SDS011;36256;42.154;23.002;2023-06-14T00:08:35;10.43;;;5.80;;
36629;SDS011;36256;42.154;23.002;2023-06-14T00:11:02;9.20;;;5.80;;
36629;SDS011;36256;42.154;23.002;2023-06-14T00:13:28;9.13;;;6.07;;
36629;SDS011;36256;42.154;23.002;2023-06-14T00:15:55;9.73;;;5.57;;
36629;SDS011;36256;42.154;23.002;2023-06-14T00:18:22;13.57;;;5.80;;
36629;SDS011;36256;42.154;23.002;2023-06-14T00:20:55;10.60;;;5.95;;
36629;SDS011;36256;42.154;23.002;2023-06-14T00:23:22;8.20;;;5.38;;
36629;SDS011;36256;42.154;23.002;2023-06-14T00:25:49;9.02;;;5.68;;
36629;SDS011;36256;42.154;23.002;2023-06-14T00:28:16;8.55;;;5.68;;
36629;SDS011;36256;42.154;23.002;2023-06-14T00:30:42;10.63;;;5.40;;
36629;SDS011;36256;42.154;23.002;2023-06-14T00:33:12;11.77;;;5.40;;
36629;SDS011;36256;42.154;23.002;2023-06-14T00:35:39;8.15;;;5.97;;
36629;SDS011;36256;42.154;23.002;2023-06-14T00:38:06;9.02;;;5.85;;
36629;SDS011;36256;42.154;23.002;2023-06-14T00:40:33;9.82;;;5.50;;
36629;SDS011;36256;42.154;23.002;2023-06-14T00:43:01;10.50;;;5.85;;
36629;SDS011;36256;42.154;23.002;2023-06-14T00:45:27;13.32;;;5.95;;
36629;SDS011;36256;42.154;23.002;2023-06-14T00:47:54;9.30;;;5.90;;
36629;SDS011;36256;42.154;23.002;2023-06-14T00:50:22;11.43;;;5.68;;
36629;SDS011;36256;42.154;23.002;2023-06-14T00:52:49;8.57;;;5.90;;
36629;SDS011;36256;42.154;23.002;2023-06-14T00:55:17;10.88;;;5.53;;
36629;SDS011;36256;42.154;23.002;2023-06-14T00:57:44;11.60;;;6.00;;
36629;SDS011;36256;42.154;23.002;2023-06-14T01:00:12;12.18;;;5.35;;
36629;SDS011;36256;42.154;23.002;2023-06-14T01:02:39;10.30;;;5.30;;
36629;SDS011;36256;42.154;23.002;2023-06-14T01:15:36;13.35;;;5.32;;
36629;SDS011;36256;42.154;23.002;2023-06-14T01:18:04;9.40;;;5.63;;
36629;SDS011;36256;42.154;23.002;2023-06-14T01:20:32;11.77;;;5.63;;
36629;SDS011;36256;42.154;23.002;2023-06-14T01:23:03;8.90;;;5.25;;
36629;SDS011;36256;42.154;23.002;2023-06-14T01:25:30;10.40;;;5.20;;
36629;SDS011;36256;42.154;23.002;2023-06-14T01:28:00;9.70;;;5.43;;
36629;SDS011;36256;42.154;23.002;2023-06-14T01:30:30;13.68;;;5.45;;
36629;SDS011;36256;42.154;23.002;2023-06-14T01:32:59;10.02;;;5.35;;
36629;SDS011;36256;42.154;23.002;2023-06-14T01:37:53;11.77;;;5.30;;
36629;SDS011;36256;42.154;23.002;2023-06-14T01:40:20;7.72;;;5.63;;
36629;SDS011;36256;42.154;23.002;2023-06-14T01:45:16;10.13;;;4.97;;
36629;SDS011;36256;42.154;23.002;2023-06-14T01:47:45;6.47;;;5.63;;
36629;SDS011;36256;42.154;23.002;2023-06-14T01:50:12;12.27;;;5.78;;
36629;SDS011;36256;42.154;23.002;2023-06-14T01:52:40;9.98;;;5.50;;
36629;SDS011;36256;42.154;23.002;2023-06-14T01:55:07;10.10;;;5.18;;
36629;SDS011;36256;42.154;23.002;2023-06-14T01:57:34;11.65;;;5.43;;
36629;SDS011;36256;42.154;23.002;2023-06-14T02:00:01;11.15;;;5.78;;
36629;SDS011;36256;42.154;23.002;2023-06-14T02:02:29;10.65;;;4.72;;
36629;SDS011;36256;42.154;23.002;2023-06-14T02:04:56;11.13;;;5.32;;
36629;SDS011;36256;42.154;23.002;2023-06-14T02:07:23;8.73;;;4.95;;
36629;SDS011;36256;42.154;23.002;2023-06-14T02:09:50;10.05;;;5.13;;
36629;SDS011;36256;42.154;23.002;2023-06-14T02:12:17;8.82;;;4.90;;
36629;SDS011;36256;42.154;23.002;2023-06-14T02:14:44;7.50;;;4.90;;
36629;SDS011;36256;42.154;23.002;2023-06-14T02:17:11;8.05;;;4.88;;
36629;SDS011;36256;42.154;23.002;2023-06-14T02:19:38;7.18;;;4.57;;
36629;SDS011;36256;42.154;23.002;2023-06-14T02:22:05;9.38;;;5.20;;
36629;SDS011;36256;42.154;23.002;2023-06-14T02:24:31;12.13;;;5.40;;
36629;SDS011;36256;42.154;23.002;2023-06-14T02:26:58;7.72;;;4.55;;
36629;SDS011;36256;42.154;23.002;2023-06-14T02:29:25;8.68;;;4.63;;
36629;SDS011;36256;42.154;23.002;2023-06-14T02:31:52;7.45;;;4.68;;
36629;SDS011;36256;42.154;23.002;2023-06-14T02:34:18;10.88;;;4.60;;
36629;SDS011;36256;42.154;23.002;2023-06-14T02:36:46;8.77;;;4.70;;
36629;SDS011;36256;42.154;23.002;2023-06-14T02:41:40;8.02;;;5.05;;
36629;SDS011;36256;42.154;23.002;2023-06-14T02:44:07;7.10;;;4.32;;
36629;SDS011;36256;42.154;23.002;2023-06-14T02:46:34;6.90;;;4.82;;
36629;SDS011;36256;42.154;23.002;2023-06-14T02:49:01;8.07;;;4.65;;
36629;SDS011;36256;42.154;23.002;2023-06-14T02:53:55;8.02;;;4.65;;
36629;SDS011;36256;42.154;23.002;2023-06-14T02:56:21;11.75;;;4.88;;
36629;SDS011;36256;42.154;23.002;2023-06-14T02:58:49;11.80;;;4.43;;
36629;SDS011;36256;42.154;23.002;2023-06-14T03:01:15;6.72;;;5.00;;
36629;SDS011;36256;42.154;23.002;2023-06-14T03:03:43;11.65;;;5.03;;
36629;SDS011;36256;42.154;23.002;2023-06-14T03:06:10;9.40;;;4.95;;
36629;SDS011;36256;42.154;23.002;2023-06-14T03:08:42;7.40;;;4.53;;
36629;SDS011;36256;42.154;23.002;2023-06-14T03:11:10;7.78;;;4.70;;
36629;SDS011;36256;42.154;23.002;2023-06-14T03:13:37;6.63;;;4.82;;
36629;SDS011;36256;42.154;23.002;2023-06-14T03:16:05;7.00;;;5.03;;
36629;SDS011;36256;42.154;23.002;2023-06-14T03:18:33;8.38;;;5.00;;
36629;SDS011;36256;42.154;23.002;2023-06-14T03:21:02;12.65;;;5.30;;
36629;SDS011;36256;42.154;23.002;2023-06-14T03:23:29;7.65;;;5.47;;
36629;SDS011;36256;42.154;23.002;2023-06-14T03:25:56;7.82;;;5.13;;
36629;SDS011;36256;42.154;23.002;2023-06-14T03:28:23;8.85;;;5.20;;
36629;SDS011;36256;42.154;23.002;2023-06-14T03:30:50;13.63;;;5.15;;
36629;SDS011;36256;42.154;23.002;2023-06-14T03:35:44;6.30;;;4.65;;
36629;SDS011;36256;42.154;23.002;2023-06-14T03:38:11;8.02;;;5.07;;
36629;SDS011;36256;42.154;23.002;2023-06-14T03:40:38;6.47;;;4.75;;
36629;SDS011;36256;42.154;23.002;2023-06-14T03:43:04;8.25;;;5.00;;
36629;SDS011;36256;42.154;23.002;2023-06-14T03:45:31;8.55;;;4.78;;
36629;SDS011;36256;42.154;23.002;2023-06-14T03:47:58;6.93;;;4.55;;
36629;SDS011;36256;42.154;23.002;2023-06-14T03:50:27;10.10;;;4.72;;
36629;SDS011;36256;42.154;23.002;2023-06-14T03:52:54;7.05;;;4.95;;
36629;SDS011;36256;42.154;23.002;2023-06-14T03:55:21;6.10;;;4.80;;
36629;SDS011;36256;42.154;23.002;2023-06-14T03:58:11;8.82;;;5.20;;
36629;SDS011;36256;42.154;23.002;2023-06-14T04:00:39;6.47;;;4.47;;
36629;SDS011;36256;42.154;23.002;2023-06-14T04:03:06;7.00;;;4.38;;
36629;SDS011;36256;42.154;23.002;2023-06-14T04:05:33;7.95;;;5.13;;
36629;SDS011;36256;42.154;23.002;2023-06-14T04:08:00;6.65;;;4.55;;
36629;SDS011;36256;42.154;23.002;2023-06-14T04:10:27;11.00;;;5.05;;
36629;SDS011;36256;42.154;23.002;2023-06-14T04:12:54;6.80;;;4.95;;
36629;SDS011;36256;42.154;23.002;2023-06-14T04:15:21;8.15;;;4.97;;
36629;SDS011;36256;42.154;23.002;2023-06-14T04:17:48;7.45;;;4.45;;
36629;SDS011;36256;42.154;23.002;2023-06-14T04:20:15;8.23;;;4.80;;
36629;SDS011;36256;42.154;23.002;2023-06-14T04:22:43;7.82;;;4.70;;
36629;SDS011;36256;42.154;23.002;2023-06-14T04:25:09;6.78;;;4.78;;
36629;SDS011;36256;42.154;23.002;2023-06-14T04:27:37;7.13;;;4.75;;
36629;SDS011;36256;42.154;23.002;2023-06-14T04:35:00;8.38;;;5.10;;
36629;SDS011;36256;42.154;23.002;2023-06-14T04:37:30;7.53;;;4.45;;
36629;SDS011;36256;42.154;23.002;2023-06-14T04:39:57;7.15;;;5.15;;
36629;SDS011;36256;42.154;23.002;2023-06-14T04:44:57;12.18;;;4.78;;
36629;SDS011;36256;42.154;23.002;2023-06-14T04:49:59;7.75;;;5.13;;
36629;SDS011;36256;42.154;23.002;2023-06-14T04:52:27;5.32;;;4.38;;
36629;SDS011;36256;42.154;23.002;2023-06-14T04:54:56;5.68;;;4.47;;
36629;SDS011;36256;42.154;23.002;2023-06-14T04:57:23;7.05;;;4.10;;
36629;SDS011;36256;42.154;23.002;2023-06-14T04:59:51;7.75;;;4.55;;
36629;SDS011;36256;42.154;23.002;2023-06-14T05:02:22;5.82;;;4.25;;
36629;SDS011;36256;42.154;23.002;2023-06-14T05:04:50;9.27;;;4.82;;
36629;SDS011;36256;42.154;23.002;2023-06-14T05:07:17;4.30;;;3.90;;
36629;SDS011;36256;42.154;23.002;2023-06-14T05:09:44;7.43;;;4.75;;
36629;SDS011;36256;42.154;23.002;2023-06-14T05:12:12;4.95;;;4.22;;
36629;SDS011;36256;42.154;23.002;2023-06-14T05:14:38;7.97;;;4.13;;
36629;SDS011;36256;42.154;23.002;2023-06-14T05:17:06;6.68;;;4.15;;
36629;SDS011;36256;42.154;23.002;2023-06-14T05:19:33;7.68;;;3.78;;
36629;SDS011;36256;42.154;23.002;2023-06-14T05:21:59;4.45;;;4.03;;
36629;SDS011;36256;42.154;23.002;2023-06-14T05:24:26;4.53;;;3.80;;
36629;SDS011;36256;42.154;23.002;2023-06-14T05:26:55;4.50;;;3.80;;
36629;SDS011;36256;42.154;23.002;2023-06-14T05:29:22;7.50;;;3.70;;
36629;SDS011;36256;42.154;23.002;2023-06-14T05:31:49;5.78;;;3.67;;
36629;SDS011;36256;42.154;23.002;2023-06-14T05:34:15;4.15;;;3.75;;
36629;SDS011;36256;42.154;23.002;2023-06-14T05:36:42;5.93;;;3.53;;
36629;SDS011;36256;42.154;23.002;2023-06-14T05:39:09;5.75;;;3.47;;
36629;SDS011;36256;42.154;23.002;2023-06-14T05:44:03;5.30;;;3.25;;
36629;SDS011;36256;42.154;23.002;2023-06-14T05:46:29;4.18;;;3.28;;
36629;SDS011;36256;42.154;23.002;2023-06-14T05:48:56;3.38;;;3.08;;
36629;SDS011;36256;42.154;23.002;2023-06-14T05:51:24;5.07;;;3.00;;
36629;SDS011;36256;42.154;23.002;2023-06-14T05:53:53;4.85;;;2.90;;
36629;SDS011;36256;42.154;23.002;2023-06-14T05:56:21;3.95;;;2.97;;
36629;SDS011;36256;42.154;23.002;2023-06-14T05:58:48;7.50;;;2.83;;
36629;SDS011;36256;42.154;23.002;2023-06-14T06:01:15;4.55;;;3.00;;
36629;SDS011;36256;42.154;23.002;2023-06-14T06:03:42;5.20;;;3.20;;
36629;SDS011;36256;42.154;23.002;2023-06-14T06:06:12;6.13;;;3.08;;
36629;SDS011;36256;42.154;23.002;2023-06-14T06:08:39;4.60;;;2.97;;
36629;SDS011;36256;42.154;23.002;2023-06-14T06:11:07;5.18;;;2.90;;
36629;SDS011;36256;42.154;23.002;2023-06-14T06:13:33;6.25;;;2.88;;
36629;SDS011;36256;42.154;23.002;2023-06-14T06:16:02;4.03;;;2.97;;
36629;SDS011;36256;42.154;23.002;2023-06-14T06:18:29;4.30;;;3.20;;
36629;SDS011;36256;42.154;23.002;2023-06-14T06:20:56;5.22;;;3.40;;
36629;SDS011;36256;42.154;23.002;2023-06-14T06:23:23;6.35;;;3.08;;
36629;SDS011;36256;42.154;23.002;2023-06-14T06:25:50;4.55;;;3.28;;
36629;SDS011;36256;42.154;23.002;2023-06-14T06:28:17;7.13;;;3.22;;
36629;SDS011;36256;42.154;23.002;2023-06-14T06:30:43;3.17;;;2.88;;
36629;SDS011;36256;42.154;23.002;2023-06-14T06:33:10;4.28;;;2.95;;
36629;SDS011;36256;42.154;23.002;2023-06-14T06:35:38;5.95;;;3.45;;
36629;SDS011;36256;42.154;23.002;2023-06-14T06:38:04;6.43;;;3.55;;
36629;SDS011;36256;42.154;23.002;2023-06-14T06:40:31;8.40;;;4.10;;
36629;SDS011;36256;42.154;23.002;2023-06-14T06:42:58;8.52;;;3.90;;
36629;SDS011;36256;42.154;23.002;2023-06-14T06:45:24;6.78;;;4.00;;
36629;SDS011;36256;42.154;23.002;2023-06-14T06:47:51;4.93;;;3.80;;
36629;SDS011;36256;42.154;23.002;2023-06-14T06:50:18;6.78;;;4.47;;
36629;SDS011;36256;42.154;23.002;2023-06-14T06:52:46;5.93;;;4.55;;
36629;SDS011;36256;42.154;23.002;2023-06-14T06:55:13;10.23;;;5.13;;
36629;SDS011;36256;42.154;23.002;2023-06-14T06:57:41;9.43;;;5.63;;
36629;SDS011;36256;42.154;23.002;2023-06-14T07:00:08;10.35;;;6.32;;
36629;SDS011;36256;42.154;23.002;2023-06-14T07:02:36;10.95;;;6.43;;
36629;SDS011;36256;42.154;23.002;2023-06-14T07:05:03;10.02;;;6.05;;
36629;SDS011;36256;42.154;23.002;2023-06-14T07:07:31;10.65;;;6.30;;
36629;SDS011;36256;42.154;23.002;2023-06-14T07:09:58;10.77;;;6.70;;
36629;SDS011;36256;42.154;23.002;2023-06-14T07:12:25;13.23;;;7.03;;
36629;SDS011;36256;42.154;23.002;2023-06-14T07:14:52;12.27;;;7.28;;
36629;SDS011;36256;42.154;23.002;2023-06-14T07:17:18;15.65;;;8.07;;
36629;SDS011;36256;42.154;23.002;2023-06-14T07:19:45;18.30;;;8.82;;
36629;SDS011;36256;42.154;23.002;2023-06-14T07:22:12;15.60;;;9.30;;
36629;SDS011;36256;42.154;23.002;2023-06-14T07:24:39;13.20;;;8.63;;
36629;SDS011;36256;42.154;23.002;2023-06-14T07:27:07;16.65;;;9.75;;
36629;SDS011;36256;42.154;23.002;2023-06-14T07:34:27;15.95;;;11.43;;
36629;SDS011;36256;42.154;23.002;2023-06-14T07:36:54;15.75;;;10.52;;
36629;SDS011;36256;42.154;23.002;2023-06-14T07:39:21;11.07;;;8.43;;
36629;SDS011;36256;42.154;23.002;2023-06-14T07:41:48;13.02;;;8.73;;
36629;SDS011;36256;42.154;23.002;2023-06-14T07:44:14;15.43;;;8.85;;
36629;SDS011;36256;42.154;23.002;2023-06-14T07:46:42;17.13;;;10.20;;
36629;SDS011;36256;42.154;23.002;2023-06-14T07:49:09;18.27;;;9.75;;
36629;SDS011;36256;42.154;23.002;2023-06-14T07:54:04;13.23;;;9.98;;
36629;SDS011;36256;42.154;23.002;2023-06-14T07:56:31;14.63;;;9.75;;
36629;SDS011;36256;42.154;23.002;2023-06-14T07:58:57;21.90;;;10.90;;
36629;SDS011;36256;42.154;23.002;2023-06-14T08:01:24;14.35;;;10.27;;
36629;SDS011;36256;42.154;23.002;2023-06-14T08:03:52;14.45;;;9.88;;
36629;SDS011;36256;42.154;23.002;2023-06-14T08:06:19;12.52;;;10.18;;
36629;SDS011;36256;42.154;23.002;2023-06-14T08:08:46;15.80;;;9.50;;
36629;SDS011;36256;42.154;23.002;2023-06-14T08:11:12;14.43;;;10.20;;
36629;SDS011;36256;42.154;23.002;2023-06-14T08:13:39;12.55;;;9.93;;
36629;SDS011;36256;42.154;23.002;2023-06-14T08:16:07;15.13;;;9.77;;
36629;SDS011;36256;42.154;23.002;2023-06-14T08:18:34;12.68;;;10.35;;
36629;SDS011;36256;42.154;23.002;2023-06-14T08:21:00;16.52;;;11.27;;
36629;SDS011;36256;42.154;23.002;2023-06-14T08:23:29;16.83;;;13.02;;
36629;SDS011;36256;42.154;23.002;2023-06-14T08:25:55;16.95;;;13.05;;
36629;SDS011;36256;42.154;23.002;2023-06-14T08:28:23;23.23;;;13.25;;
36629;SDS011;36256;42.154;23.002;2023-06-14T08:30:50;20.23;;;13.05;;
36629;SDS011;36256;42.154;23.002;2023-06-14T08:33:17;17.85;;;12.25;;
36629;SDS011;36256;42.154;23.002;2023-06-14T08:35:44;16.63;;;12.40;;
36629;SDS011;36256;42.154;23.002;2023-06-14T08:38:11;16.02;;;12.20;;
36629;SDS011;36256;42.154;23.002;2023-06-14T08:40:38;17.75;;;12.73;;
36629;SDS011;36256;42.154;23.002;2023-06-14T08:43:08;17.10;;;12.27;;
36629;SDS011;36256;42.154;23.002;2023-06-14T08:45:35;13.52;;;12.13;;
36629;SDS011;36256;42.154;23.002;2023-06-14T08:48:02;17.65;;;12.43;;
36629;SDS011;36256;42.154;23.002;2023-06-14T08:50:32;13.45;;;11.40;;
36629;SDS011;36256;42.154;23.002;2023-06-14T08:53:01;15.15;;;12.13;;
36629;SDS011;36256;42.154;23.002;2023-06-14T08:55:30;17.20;;;12.70;;
36629;SDS011;36256;42.154;23.002;2023-06-14T08:58:02;16.55;;;11.68;;
36629;SDS011;36256;42.154;23.002;2023-06-14T09:00:30;17.48;;;11.38;;
36629;SDS011;36256;42.154;23.002;2023-06-14T09:02:59;13.30;;;11.57;;
36629;SDS011;36256;42.154;23.002;2023-06-14T09:05:28;13.93;;;11.02;;
36629;SDS011;36256;42.154;23.002;2023-06-14T09:07:55;16.98;;;11.50;;
36629;SDS011;36256;42.154;23.002;2023-06-14T09:10:31;14.80;;;11.45;;
36629;SDS011;36256;42.154;23.002;2023-06-14T09:13:04;12.27;;;10.85;;
36629;SDS011;36256;42.154;23.002;2023-06-14T09:15:32;11.65;;;10.45;;
36629;SDS011;36256;42.154;23.002;2023-06-14T09:18:02;16.73;;;12.25;;
36629;SDS011;36256;42.154;23.002;2023-06-14T09:20:30;16.30;;;12.20;;
36629;SDS011;36256;42.154;23.002;2023-06-14T09:25:24;13.80;;;10.70;;
36629;SDS011;36256;42.154;23.002;2023-06-14T09:28:08;15.48;;;10.90;;
36629;SDS011;36256;42.154;23.002;2023-06-14T09:30:38;11.38;;;9.95;;
36629;SDS011;36256;42.154;23.002;2023-06-14T09:33:05;12.73;;;10.13;;
36629;SDS011;36256;42.154;23.002;2023-06-14T09:37:59;12.65;;;9.90;;
36629;SDS011;36256;42.154;23.002;2023-06-14T09:40:26;10.90;;;9.35;;
36629;SDS011;36256;42.154;23.002;2023-06-14T09:42:53;11.35;;;10.25;;
36629;SDS011;36256;42.154;23.002;2023-06-14T09:45:24;13.32;;;9.70;;
36629;SDS011;36256;42.154;23.002;2023-06-14T09:47:55;12.50;;;9.75;;
36629;SDS011;36256;42.154;23.002;2023-06-14T09:50:33;11.82;;;9.70;;
36629;SDS011;36256;42.154;23.002;2023-06-14T09:53:02;11.32;;;10.05;;
36629;SDS011;36256;42.154;23.002;2023-06-14T09:55:34;11.82;;;9.90;;
36629;SDS011;36256;42.154;23.002;2023-06-14T09:58:04;13.63;;;9.82;;
36629;SDS011;36256;42.154;23.002;2023-06-14T10:00:34;11.68;;;9.20;;
36629;SDS011;36256;42.154;23.002;2023-06-14T10:05:47;11.68;;;10.48;;
36629;SDS011;36256;42.154;23.002;2023-06-14T10:08:17;11.95;;;9.18;;
36629;SDS011;36256;42.154;23.002;2023-06-14T10:10:47;11.20;;;9.05;;
36629;SDS011;36256;42.154;23.002;2023-06-14T10:13:14;10.70;;;9.60;;
36629;SDS011;36256;42.154;23.002;2023-06-14T10:15:48;11.82;;;9.70;;
36629;SDS011;36256;42.154;23.002;2023-06-14T10:21:05;13.43;;;10.52;;
36629;SDS011;36256;42.154;23.002;2023-06-14T10:23:40;11.38;;;9.18;;
36629;SDS011;36256;42.154;23.002;2023-06-14T10:26:13;19.38;;;10.73;;
36629;SDS011;36256;42.154;23.002;2023-06-14T10:28:54;16.83;;;9.45;;
36629;SDS011;36256;42.154;23.002;2023-06-14T10:31:39;10.00;;;8.70;;
36629;SDS011;36256;42.154;23.002;2023-06-14T10:34:07;14.73;;;9.60;;
36629;SDS011;36256;42.154;23.002;2023-06-14T10:36:34;10.48;;;9.35;;
36629;SDS011;36256;42.154;23.002;2023-06-14T10:39:05;10.60;;;8.80;;
36629;SDS011;36256;42.154;23.002;2023-06-14T10:41:37;13.43;;;8.95;;
36629;SDS011;36256;42.154;23.002;2023-06-14T10:46:48;10.88;;;9.85;;
36629;SDS011;36256;42.154;23.002;2023-06-14T10:49:16;10.93;;;9.90;;
36629;SDS011;36256;42.154;23.002;2023-06-14T10:51:49;13.05;;;10.10;;
36629;SDS011;36256;42.154;23.002;2023-06-14T10:54:21;11.68;;;10.48;;
36629;SDS011;36256;42.154;23.002;2023-06-14T10:56:49;11.63;;;10.40;;
36629;SDS011;36256;42.154;23.002;2023-06-14T10:59:17;10.23;;;9.23;;
36629;SDS011;36256;42.154;23.002;2023-06-14T11:04:32;13.82;;;10.07;;
36629;SDS011;36256;42.154;23.002;2023-06-14T11:07:26;11.10;;;10.00;;
36629;SDS011;36256;42.154;23.002;2023-06-14T11:10:39;12.77;;;9.43;;
36629;SDS011;36256;42.154;23.002;2023-06-14T11:13:07;14.35;;;9.68;;
36629;SDS011;36256;42.154;23.002;2023-06-14T11:15:35;11.73;;;9.80;;
36629;SDS011;36256;42.154;23.002;2023-06-14T11:18:07;21.90;;;10.05;;
36629;SDS011;36256;42.154;23.002;2023-06-14T11:20:36;12.45;;;9.43;;
36629;SDS011;36256;42.154;23.002;2023-06-14T11:25:30;11.52;;;10.00;;
36629;SDS011;36256;42.154;23.002;2023-06-14T11:27:57;11.35;;;10.15;;
36629;SDS011;36256;42.154;23.002;2023-06-14T11:30:25;12.75;;;10.68;;
36629;SDS011;36256;42.154;23.002;2023-06-14T11:32:52;11.30;;;10.18;;
36629;SDS011;36256;42.154;23.002;2023-06-14T11:35:24;11.75;;;10.07;;
36629;SDS011;36256;42.154;23.002;2023-06-14T11:37:55;11.98;;;9.68;;
36629;SDS011;36256;42.154;23.002;2023-06-14T11:40:24;11.00;;;9.82;;
36629;SDS011;36256;42.154;23.002;2023-06-14T11:42:58;12.07;;;10.45;;
36629;SDS011;36256;42.154;23.002;2023-06-14T11:45:26;12.20;;;10.93;;
36629;SDS011;36256;42.154;23.002;2023-06-14T11:47:54;15.60;;;10.55;;
36629;SDS011;36256;42.154;23.002;2023-06-14T11:50:23;11.55;;;10.45;;
36629;SDS011;36256;42.154;23.002;2023-06-14T11:52:54;8.95;;;7.47;;
36629;SDS011;36256;42.154;23.002;2023-06-14T11:55:22;6.90;;;6.22;;
36629;SDS011;36256;42.154;23.002;2023-06-14T11:57:50;6.55;;;5.88;;
36629;SDS011;36256;42.154;23.002;2023-06-14T12:00:22;7.05;;;5.43;;
36629;SDS011;36256;42.154;23.002;2023-06-14T12:02:52;6.18;;;5.40;;
36629;SDS011;36256;42.154;23.002;2023-06-14T12:05:24;7.05;;;5.80;;
36629;SDS011;36256;42.154;23.002;2023-06-14T12:07:59;6.80;;;6.10;;
36629;SDS011;36256;42.154;23.002;2023-06-14T12:10:26;7.70;;;6.15;;
36629;SDS011;36256;42.154;23.002;2023-06-14T12:12:57;7.95;;;6.97;;
36629;SDS011;36256;42.154;23.002;2023-06-14T12:15:27;8.82;;;6.88;;
36629;SDS011;36256;42.154;23.002;2023-06-14T12:17:56;7.70;;;6.90;;
36629;SDS011;36256;42.154;23.002;2023-06-14T12:20:28;8.27;;;7.47;;
36629;SDS011;36256;42.154;23.002;2023-06-14T12:22:56;8.02;;;6.82;;
36629;SDS011;36256;42.154;23.002;2023-06-14T12:27:58;10.35;;;8.35;;
36629;SDS011;36256;42.154;23.002;2023-06-14T12:30:26;12.30;;;8.82;;
36629;SDS011;36256;42.154;23.002;2023-06-14T12:32:53;13.32;;;8.25;;
36629;SDS011;36256;42.154;23.002;2023-06-14T12:35:19;9.07;;;8.07;;
36629;SDS011;36256;42.154;23.002;2023-06-14T12:37:46;8.63;;;7.72;;
36629;SDS011;36256;42.154;23.002;2023-06-14T12:40:13;11.25;;;7.40;;
36629;SDS011;36256;42.154;23.002;2023-06-14T12:45:07;6.72;;;5.47;;
36629;SDS011;36256;42.154;23.002;2023-06-14T12:47:34;9.45;;;4.82;;
36629;SDS011;36256;42.154;23.002;2023-06-14T12:50:02;6.53;;;5.88;;
36629;SDS011;36256;42.154;23.002;2023-06-14T12:54:56;7.55;;;5.47;;
36629;SDS011;36256;42.154;23.002;2023-06-14T12:57:23;5.90;;;5.30;;
36629;SDS011;36256;42.154;23.002;2023-06-14T12:59:50;5.90;;;5.30;;
36629;SDS011;36256;42.154;23.002;2023-06-14T13:02:17;8.93;;;5.95;;
36629;SDS011;36256;42.154;23.002;2023-06-14T13:04:51;7.40;;;6.25;;
36629;SDS011;36256;42.154;23.002;2023-06-14T13:07:18;5.78;;;5.25;;
36629;SDS011;36256;42.154;23.002;2023-06-14T13:09:45;5.28;;;4.78;;
36629;SDS011;36256;42.154;23.002;2023-06-14T13:12:11;4.53;;;4.13;;
36629;SDS011;36256;42.154;23.002;2023-06-14T13:17:09;4.80;;;4.30;;
36629;SDS011;36256;42.154;23.002;2023-06-14T13:19:37;3.92;;;3.53;;
36629;SDS011;36256;42.154;23.002;2023-06-14T13:22:04;3.83;;;3.10;;
36629;SDS011;36256;42.154;23.002;2023-06-14T13:24:31;4.38;;;3.95;;
36629;SDS011;36256;42.154;23.002;2023-06-14T13:26:58;5.65;;;4.55;;
36629;SDS011;36256;42.154;23.002;2023-06-14T13:29:25;5.85;;;4.95;;
36629;SDS011;36256;42.154;23.002;2023-06-14T13:31:53;17.40;;;5.40;;
36629;SDS011;36256;42.154;23.002;2023-06-14T13:34:20;5.28;;;4.78;;
36629;SDS011;36256;42.154;23.002;2023-06-14T13:36:48;17.13;;;5.35;;
36629;SDS011;36256;42.154;23.002;2023-06-14T13:39:15;8.18;;;4.93;;
36629;SDS011;36256;42.154;23.002;2023-06-14T13:44:09;5.70;;;5.05;;
36629;SDS011;36256;42.154;23.002;2023-06-14T13:46:42;5.97;;;4.93;;
36629;SDS011;36256;42.154;23.002;2023-06-14T13:49:09;5.97;;;4.90;;
36629;SDS011;36256;42.154;23.002;2023-06-14T13:51:36;6.05;;;4.65;;
36629;SDS011;36256;42.154;23.002;2023-06-14T13:54:03;5.40;;;4.90;;
36629;SDS011;36256;42.154;23.002;2023-06-14T13:56:30;5.60;;;5.03;;
36629;SDS011;36256;42.154;23.002;2023-06-14T13:58:57;6.15;;;4.55;;
36629;SDS011;36256;42.154;23.002;2023-06-14T14:01:24;11.02;;;5.32;;
36629;SDS011;36256;42.154;23.002;2023-06-14T14:03:52;5.03;;;4.47;;
36629;SDS011;36256;42.154;23.002;2023-06-14T14:06:19;5.40;;;4.50;;
36629;SDS011;36256;42.154;23.002;2023-06-14T14:08:45;6.75;;;4.53;;
36629;SDS011;36256;42.154;23.002;2023-06-14T14:11:12;5.25;;;3.80;;
36629;SDS011;36256;42.154;23.002;2023-06-14T14:16:07;5.07;;;3.60;;
36629;SDS011;36256;42.154;23.002;2023-06-14T14:18:34;5.95;;;3.80;;
36629;SDS011;36256;42.154;23.002;2023-06-14T14:21:01;4.75;;;3.42;;
36629;SDS011;36256;42.154;23.002;2023-06-14T14:23:28;5.68;;;3.60;;
36629;SDS011;36256;42.154;23.002;2023-06-14T14:25:55;3.88;;;2.92;;
36629;SDS011;36256;42.154;23.002;2023-06-14T14:28:23;4.10;;;2.97;;
36629;SDS011;36256;42.154;23.002;2023-06-14T14:30:49;3.58;;;2.90;;
36629;SDS011;36256;42.154;23.002;2023-06-14T14:33:16;3.80;;;2.90;;
36629;SDS011;36256;42.154;23.002;2023-06-14T14:35:44;5.00;;;3.25;;
36629;SDS011;36256;42.154;23.002;2023-06-14T14:38:14;5.72;;;3.08;;
36629;SDS011;36256;42.154;23.002;2023-06-14T14:40:44;5.40;;;3.30;;
36629;SDS011;36256;42.154;23.002;2023-06-14T14:45:37;3.70;;;3.13;;
36629;SDS011;36256;42.154;23.002;2023-06-14T14:48:04;4.35;;;3.35;;
36629;SDS011;36256;42.154;23.002;2023-06-14T14:50:32;4.72;;;3.42;;
36629;SDS011;36256;42.154;23.002;2023-06-14T14:52:59;5.93;;;3.70;;
36629;SDS011;36256;42.154;23.002;2023-06-14T14:55:26;9.05;;;4.00;;
36629;SDS011;36256;42.154;23.002;2023-06-14T14:57:53;4.45;;;3.85;;
36629;SDS011;36256;42.154;23.002;2023-06-14T15:00:20;9.07;;;3.88;;
36629;SDS011;36256;42.154;23.002;2023-06-14T15:02:47;11.82;;;3.60;;
36629;SDS011;36256;42.154;23.002;2023-06-14T15:05:14;7.85;;;3.50;;
36629;SDS011;36256;42.154;23.002;2023-06-14T15:07:40;5.32;;;3.60;;
36629;SDS011;36256;42.154;23.002;2023-06-14T15:12:35;4.50;;;4.00;;
36629;SDS011;36256;42.154;23.002;2023-06-14T15:15:02;5.55;;;4.88;;
36629;SDS011;36256;42.154;23.002;2023-06-14T15:17:29;6.50;;;4.47;;
36629;SDS011;36256;42.154;23.002;2023-06-14T15:19:56;5.38;;;4.70;;
36629;SDS011;36256;42.154;23.002;2023-06-14T15:22:23;4.72;;;4.32;;
36629;SDS011;36256;42.154;23.002;2023-06-14T15:24:50;5.60;;;4.63;;
36629;SDS011;36256;42.154;23.002;2023-06-14T15:27:17;5.68;;;4.30;;
36629;SDS011;36256;42.154;23.002;2023-06-14T15:32:14;4.63;;;4.10;;
36629;SDS011;36256;42.154;23.002;2023-06-14T15:34:40;7.70;;;4.43;;
36629;SDS011;36256;42.154;23.002;2023-06-14T15:37:07;4.95;;;3.95;;
36629;SDS011;36256;42.154;23.002;2023-06-14T15:39:35;5.05;;;4.30;;
36629;SDS011;36256;42.154;23.002;2023-06-14T15:42:02;4.68;;;3.50;;
36629;SDS011;36256;42.154;23.002;2023-06-14T15:44:29;6.70;;;4.22;;
36629;SDS011;36256;42.154;23.002;2023-06-14T15:46:56;4.93;;;4.43;;
36629;SDS011;36256;42.154;23.002;2023-06-14T15:49:23;5.00;;;4.57;;
36629;SDS011;36256;42.154;23.002;2023-06-14T15:51:50;7.00;;;4.28;;
36629;SDS011;36256;42.154;23.002;2023-06-14T15:54:16;4.82;;;4.30;;